sensor_id;sensor_type;location;lat;lon;timestamp;P1;durP1;ratioP1;P2;durP2;ratioP2
54959;SDS011;40860;51.710;8.736;2024-01-07T00:03:09;24.83;;;14.32;;
54959;SDS011;40860;51.710;8.736;2024-01-07T00:07:14;22.98;;;14.52;;
54959;SDS011;40860;51.710;8.736;2024-01-07T00:11:16;24.52;;;14.50;;
54959;SDS011;40860;51.710;8.736;2024-01-07T00:15:19;17.85;;;12.55;;
54959;SDS011;40860;51.710;8.736;2024-01-07T00:19:22;20.17;;;13.40;;
54959;SDS011;40860;51.710;8.736;2024-01-07T00:23:26;24.48;;;13.27;;
54959;SDS011;40860;51.710;8.736;2024-01-07T00:27:29;22.83;;;14.38;;
54959;SDS011;40860;51.710;8.736;2024-01-07T00:31:32;23.50;;;13.85;;
54959;SDS011;40860;51.710;8.736;2024-01-07T00:35:37;27.70;;;16.15;;
54959;SDS011;40860;51.710;8.736;2024-01-07T00:39:41;25.80;;;16.52;;
54959;SDS011;40860;51.710;8.736;2024-01-07T00:43:47;29.95;;;16.33;;
54959;SDS011;40860;51.710;8.736;2024-01-07T00:47:49;28.95;;;16.92;;
54959;SDS011;40860;51.710;8.736;2024-01-07T00:51:54;30.73;;;17.42;;
54959;SDS011;40860;51.710;8.736;2024-01-07T00:56:01;28.08;;;16.98;;
54959;SDS011;40860;51.710;8.736;2024-01-07T01:00:05;28.83;;;16.00;;
54959;SDS011;40860;51.710;8.736;2024-01-07T01:04:09;26.65;;;17.08;;
54959;SDS011;40860;51.710;8.736;2024-01-07T01:08:12;26.35;;;16.70;;
54959;SDS011;40860;51.710;8.736;2024-01-07T01:12:17;26.85;;;16.83;;
54959;SDS011;40860;51.710;8.736;2024-01-07T01:16:21;30.33;;;16.50;;
54959;SDS011;40860;51.710;8.736;2024-01-07T01:20:26;28.65;;;18.05;;
54959;SDS011;40860;51.710;8.736;2024-01-07T01:24:29;26.25;;;16.48;;
54959;SDS011;40860;51.710;8.736;2024-01-07T01:28:33;26.38;;;16.98;;
54959;SDS011;40860;51.710;8.736;2024-01-07T01:32:36;24.98;;;15.88;;
54959;SDS011;40860;51.710;8.736;2024-01-07T01:36:39;23.58;;;16.38;;
54959;SDS011;40860;51.710;8.736;2024-01-07T01:40:42;22.27;;;15.57;;
54959;SDS011;40860;51.710;8.736;2024-01-07T01:44:47;20.77;;;14.15;;
54959;SDS011;40860;51.710;8.736;2024-01-07T01:48:50;21.95;;;14.65;;
54959;SDS011;40860;51.710;8.736;2024-01-07T01:52:53;22.73;;;16.02;;
54959;SDS011;40860;51.710;8.736;2024-01-07T01:56:57;21.98;;;15.27;;
54959;SDS011;40860;51.710;8.736;2024-01-07T02:01:01;22.05;;;14.52;;
54959;SDS011;40860;51.710;8.736;2024-01-07T02:05:07;23.58;;;14.88;;
54959;SDS011;40860;51.710;8.736;2024-01-07T02:09:10;22.13;;;14.70;;
54959;SDS011;40860;51.710;8.736;2024-01-07T02:13:13;20.17;;;13.63;;
54959;SDS011;40860;51.710;8.736;2024-01-07T02:17:18;17.13;;;12.80;;
54959;SDS011;40860;51.710;8.736;2024-01-07T02:21:22;15.68;;;12.52;;
54959;SDS011;40860;51.710;8.736;2024-01-07T02:25:26;16.42;;;12.32;;
54959;SDS011;40860;51.710;8.736;2024-01-07T02:29:29;16.27;;;12.27;;
54959;SDS011;40860;51.710;8.736;2024-01-07T02:33:32;15.38;;;11.63;;
54959;SDS011;40860;51.710;8.736;2024-01-07T02:37:35;17.45;;;12.65;;
54959;SDS011;40860;51.710;8.736;2024-01-07T02:41:39;17.48;;;12.60;;
54959;SDS011;40860;51.710;8.736;2024-01-07T02:45:42;17.95;;;12.90;;
54959;SDS011;40860;51.710;8.736;2024-01-07T02:49:45;18.48;;;12.70;;
54959;SDS011;40860;51.710;8.736;2024-01-07T02:53:48;18.52;;;12.85;;
54959;SDS011;40860;51.710;8.736;2024-01-07T02:57:52;19.58;;;13.93;;
54959;SDS011;40860;51.710;8.736;2024-01-07T03:01:55;20.42;;;13.75;;
54959;SDS011;40860;51.710;8.736;2024-01-07T03:05:58;21.73;;;13.77;;
54959;SDS011;40860;51.710;8.736;2024-01-07T03:10:01;18.58;;;13.82;;
54959;SDS011;40860;51.710;8.736;2024-01-07T03:14:05;18.15;;;13.15;;
54959;SDS011;40860;51.710;8.736;2024-01-07T03:18:08;20.75;;;13.63;;
54959;SDS011;40860;51.710;8.736;2024-01-07T03:22:11;20.13;;;13.98;;
54959;SDS011;40860;51.710;8.736;2024-01-07T03:26:17;21.55;;;13.80;;
54959;SDS011;40860;51.710;8.736;2024-01-07T03:30:23;17.98;;;13.35;;
54959;SDS011;40860;51.710;8.736;2024-01-07T03:34:26;19.75;;;13.00;;
54959;SDS011;40860;51.710;8.736;2024-01-07T03:38:29;16.33;;;11.88;;
54959;SDS011;40860;51.710;8.736;2024-01-07T03:42:31;17.75;;;13.10;;
54959;SDS011;40860;51.710;8.736;2024-01-07T03:46:36;18.30;;;13.32;;
54959;SDS011;40860;51.710;8.736;2024-01-07T03:50:48;18.20;;;13.05;;
54959;SDS011;40860;51.710;8.736;2024-01-07T03:54:51;20.50;;;14.07;;
54959;SDS011;40860;51.710;8.736;2024-01-07T03:58:54;20.15;;;14.25;;
54959;SDS011;40860;51.710;8.736;2024-01-07T04:02:58;25.52;;;16.23;;
54959;SDS011;40860;51.710;8.736;2024-01-07T04:07:01;25.63;;;15.90;;
54959;SDS011;40860;51.710;8.736;2024-01-07T04:11:04;22.77;;;15.27;;
54959;SDS011;40860;51.710;8.736;2024-01-07T04:15:09;22.73;;;15.35;;
54959;SDS011;40860;51.710;8.736;2024-01-07T04:19:14;22.02;;;15.18;;
54959;SDS011;40860;51.710;8.736;2024-01-07T04:23:18;22.55;;;13.38;;
54959;SDS011;40860;51.710;8.736;2024-01-07T04:27:21;17.13;;;12.55;;
54959;SDS011;40860;51.710;8.736;2024-01-07T04:31:24;17.38;;;12.73;;
54959;SDS011;40860;51.710;8.736;2024-01-07T04:35:28;15.68;;;11.32;;
54959;SDS011;40860;51.710;8.736;2024-01-07T04:39:31;14.73;;;10.60;;
54959;SDS011;40860;51.710;8.736;2024-01-07T04:43:34;16.25;;;11.77;;
54959;SDS011;40860;51.710;8.736;2024-01-07T04:47:38;14.68;;;11.38;;
54959;SDS011;40860;51.710;8.736;2024-01-07T04:51:42;16.35;;;11.50;;
54959;SDS011;40860;51.710;8.736;2024-01-07T04:55:45;17.23;;;12.38;;
54959;SDS011;40860;51.710;8.736;2024-01-07T04:59:48;15.70;;;11.57;;
54959;SDS011;40860;51.710;8.736;2024-01-07T05:03:52;12.88;;;9.63;;
54959;SDS011;40860;51.710;8.736;2024-01-07T05:07:56;11.60;;;9.23;;
54959;SDS011;40860;51.710;8.736;2024-01-07T05:12:02;12.80;;;9.27;;
54959;SDS011;40860;51.710;8.736;2024-01-07T05:16:05;13.02;;;9.93;;
54959;SDS011;40860;51.710;8.736;2024-01-07T05:20:09;12.63;;;9.95;;
54959;SDS011;40860;51.710;8.736;2024-01-07T05:24:14;13.70;;;10.45;;
54959;SDS011;40860;51.710;8.736;2024-01-07T05:28:17;14.68;;;10.80;;
54959;SDS011;40860;51.710;8.736;2024-01-07T05:32:21;14.95;;;10.80;;
54959;SDS011;40860;51.710;8.736;2024-01-07T05:36:24;16.67;;;11.23;;
54959;SDS011;40860;51.710;8.736;2024-01-07T05:40:29;14.48;;;11.13;;
54959;SDS011;40860;51.710;8.736;2024-01-07T05:44:31;16.85;;;11.48;;
54959;SDS011;40860;51.710;8.736;2024-01-07T05:48:40;15.20;;;10.32;;
54959;SDS011;40860;51.710;8.736;2024-01-07T05:52:45;12.52;;;10.25;;
54959;SDS011;40860;51.710;8.736;2024-01-07T05:56:49;11.27;;;8.90;;
54959;SDS011;40860;51.710;8.736;2024-01-07T06:00:53;13.77;;;9.23;;
54959;SDS011;40860;51.710;8.736;2024-01-07T06:04:56;14.05;;;9.00;;
54959;SDS011;40860;51.710;8.736;2024-01-07T06:08:59;13.07;;;8.93;;
54959;SDS011;40860;51.710;8.736;2024-01-07T06:13:04;11.73;;;9.25;;
54959;SDS011;40860;51.710;8.736;2024-01-07T06:17:07;11.05;;;9.13;;
54959;SDS011;40860;51.710;8.736;2024-01-07T06:21:10;11.70;;;9.07;;
54959;SDS011;40860;51.710;8.736;2024-01-07T06:25:13;14.80;;;10.45;;
54959;SDS011;40860;51.710;8.736;2024-01-07T06:29:18;13.38;;;9.60;;
54959;SDS011;40860;51.710;8.736;2024-01-07T06:33:21;12.85;;;9.68;;
54959;SDS011;40860;51.710;8.736;2024-01-07T06:37:24;11.73;;;9.27;;
54959;SDS011;40860;51.710;8.736;2024-01-07T06:41:27;11.73;;;8.60;;
54959;SDS011;40860;51.710;8.736;2024-01-07T06:45:31;11.60;;;8.95;;
54959;SDS011;40860;51.710;8.736;2024-01-07T06:49:34;9.88;;;8.15;;
54959;SDS011;40860;51.710;8.736;2024-01-07T06:53:37;10.50;;;8.73;;
54959;SDS011;40860;51.710;8.736;2024-01-07T06:57:41;12.57;;;9.23;;
54959;SDS011;40860;51.710;8.736;2024-01-07T07:01:45;9.85;;;7.65;;
54959;SDS011;40860;51.710;8.736;2024-01-07T07:05:49;9.23;;;7.82;;
54959;SDS011;40860;51.710;8.736;2024-01-07T07:09:51;11.27;;;7.78;;
54959;SDS011;40860;51.710;8.736;2024-01-07T07:13:54;9.23;;;6.82;;
54959;SDS011;40860;51.710;8.736;2024-01-07T07:17:58;10.18;;;7.68;;
54959;SDS011;40860;51.710;8.736;2024-01-07T07:22:01;11.40;;;7.90;;
54959;SDS011;40860;51.710;8.736;2024-01-07T07:26:06;9.35;;;7.10;;
54959;SDS011;40860;51.710;8.736;2024-01-07T07:30:09;8.75;;;7.47;;
54959;SDS011;40860;51.710;8.736;2024-01-07T07:34:14;12.35;;;8.55;;
54959;SDS011;40860;51.710;8.736;2024-01-07T07:38:17;13.27;;;9.52;;
54959;SDS011;40860;51.710;8.736;2024-01-07T07:42:20;13.40;;;8.98;;
54959;SDS011;40860;51.710;8.736;2024-01-07T07:46:27;10.70;;;7.25;;
54959;SDS011;40860;51.710;8.736;2024-01-07T07:50:32;9.40;;;6.68;;
54959;SDS011;40860;51.710;8.736;2024-01-07T07:54:36;8.88;;;6.45;;
54959;SDS011;40860;51.710;8.736;2024-01-07T07:58:39;9.30;;;6.00;;
54959;SDS011;40860;51.710;8.736;2024-01-07T08:02:42;9.27;;;6.25;;
54959;SDS011;40860;51.710;8.736;2024-01-07T08:06:46;7.65;;;5.38;;
54959;SDS011;40860;51.710;8.736;2024-01-07T08:10:49;9.15;;;5.88;;
54959;SDS011;40860;51.710;8.736;2024-01-07T08:14:52;8.80;;;5.78;;
54959;SDS011;40860;51.710;8.736;2024-01-07T08:18:55;7.60;;;4.78;;
54959;SDS011;40860;51.710;8.736;2024-01-07T08:23:00;7.65;;;5.55;;
54959;SDS011;40860;51.710;8.736;2024-01-07T08:27:03;9.13;;;5.68;;
54959;SDS011;40860;51.710;8.736;2024-01-07T08:31:07;6.22;;;4.32;;
54959;SDS011;40860;51.710;8.736;2024-01-07T08:35:10;5.30;;;4.15;;
54959;SDS011;40860;51.710;8.736;2024-01-07T08:39:15;7.68;;;4.70;;
54959;SDS011;40860;51.710;8.736;2024-01-07T08:43:18;8.68;;;4.70;;
54959;SDS011;40860;51.710;8.736;2024-01-07T08:47:21;3.95;;;3.50;;
54959;SDS011;40860;51.710;8.736;2024-01-07T08:51:23;6.95;;;4.43;;
54959;SDS011;40860;51.710;8.736;2024-01-07T08:55:28;6.72;;;4.05;;
54959;SDS011;40860;51.710;8.736;2024-01-07T08:59:31;4.40;;;3.10;;
54959;SDS011;40860;51.710;8.736;2024-01-07T09:03:34;4.47;;;3.40;;
54959;SDS011;40860;51.710;8.736;2024-01-07T09:07:38;4.90;;;3.97;;
54959;SDS011;40860;51.710;8.736;2024-01-07T09:11:42;4.82;;;3.90;;
54959;SDS011;40860;51.710;8.736;2024-01-07T09:15:45;5.35;;;3.80;;
54959;SDS011;40860;51.710;8.736;2024-01-07T09:19:48;4.10;;;3.70;;
54959;SDS011;40860;51.710;8.736;2024-01-07T09:23:51;5.03;;;3.80;;
54959;SDS011;40860;51.710;8.736;2024-01-07T09:27:55;9.00;;;4.55;;
54959;SDS011;40860;51.710;8.736;2024-01-07T09:31:58;7.32;;;5.45;;
54959;SDS011;40860;51.710;8.736;2024-01-07T09:36:01;4.88;;;4.22;;
54959;SDS011;40860;51.710;8.736;2024-01-07T09:40:20;6.05;;;4.28;;
54959;SDS011;40860;51.710;8.736;2024-01-07T09:44:25;6.07;;;4.40;;
54959;SDS011;40860;51.710;8.736;2024-01-07T09:48:28;4.85;;;3.35;;
54959;SDS011;40860;51.710;8.736;2024-01-07T09:52:32;5.18;;;4.30;;
54959;SDS011;40860;51.710;8.736;2024-01-07T09:56:36;4.90;;;4.28;;
54959;SDS011;40860;51.710;8.736;2024-01-07T10:00:44;4.78;;;4.03;;
54959;SDS011;40860;51.710;8.736;2024-01-07T10:04:47;6.72;;;4.00;;
54959;SDS011;40860;51.710;8.736;2024-01-07T10:08:51;5.40;;;4.07;;
54959;SDS011;40860;51.710;8.736;2024-01-07T10:12:56;6.72;;;4.20;;
54959;SDS011;40860;51.710;8.736;2024-01-07T10:17:00;8.20;;;4.38;;
54959;SDS011;40860;51.710;8.736;2024-01-07T10:21:03;4.82;;;3.50;;
54959;SDS011;40860;51.710;8.736;2024-01-07T10:25:12;3.38;;;3.08;;
54959;SDS011;40860;51.710;8.736;2024-01-07T10:29:17;3.40;;;3.10;;
54959;SDS011;40860;51.710;8.736;2024-01-07T10:33:23;3.85;;;3.40;;
54959;SDS011;40860;51.710;8.736;2024-01-07T10:37:34;3.58;;;2.65;;
54959;SDS011;40860;51.710;8.736;2024-01-07T10:41:37;4.65;;;2.58;;
54959;SDS011;40860;51.710;8.736;2024-01-07T10:45:41;4.13;;;2.75;;
54959;SDS011;40860;51.710;8.736;2024-01-07T10:49:48;3.22;;;2.30;;
54959;SDS011;40860;51.710;8.736;2024-01-07T10:53:53;2.55;;;2.25;;
54959;SDS011;40860;51.710;8.736;2024-01-07T10:57:58;2.58;;;2.38;;
54959;SDS011;40860;51.710;8.736;2024-01-07T11:02:03;3.78;;;2.53;;
54959;SDS011;40860;51.710;8.736;2024-01-07T11:06:09;3.22;;;2.50;;
54959;SDS011;40860;51.710;8.736;2024-01-07T11:10:22;3.15;;;2.70;;
54959;SDS011;40860;51.710;8.736;2024-01-07T11:14:45;5.25;;;2.70;;
54959;SDS011;40860;51.710;8.736;2024-01-07T11:18:54;3.70;;;2.22;;
54959;SDS011;40860;51.710;8.736;2024-01-07T11:27:32;5.88;;;2.50;;
54959;SDS011;40860;51.710;8.736;2024-01-07T11:31:43;2.33;;;2.08;;
54959;SDS011;40860;51.710;8.736;2024-01-07T11:35:55;3.50;;;2.40;;
54959;SDS011;40860;51.710;8.736;2024-01-07T11:40:02;3.72;;;2.30;;
54959;SDS011;40860;51.710;8.736;2024-01-07T11:44:09;3.08;;;2.58;;
54959;SDS011;40860;51.710;8.736;2024-01-07T11:48:15;2.67;;;2.40;;
54959;SDS011;40860;51.710;8.736;2024-01-07T11:52:18;4.32;;;2.42;;
54959;SDS011;40860;51.710;8.736;2024-01-07T11:56:23;4.53;;;2.72;;
54959;SDS011;40860;51.710;8.736;2024-01-07T12:00:27;2.78;;;2.35;;
54959;SDS011;40860;51.710;8.736;2024-01-07T12:04:30;2.42;;;2.22;;
54959;SDS011;40860;51.710;8.736;2024-01-07T12:08:33;3.90;;;2.60;;
54959;SDS011;40860;51.710;8.736;2024-01-07T12:12:40;3.45;;;2.90;;
54959;SDS011;40860;51.710;8.736;2024-01-07T12:16:44;3.80;;;3.00;;
54959;SDS011;40860;51.710;8.736;2024-01-07T12:20:54;3.28;;;2.97;;
54959;SDS011;40860;51.710;8.736;2024-01-07T12:25:01;5.70;;;3.13;;
54959;SDS011;40860;51.710;8.736;2024-01-07T12:29:06;3.50;;;3.20;;
54959;SDS011;40860;51.710;8.736;2024-01-07T12:33:11;3.67;;;3.15;;
54959;SDS011;40860;51.710;8.736;2024-01-07T12:37:14;4.22;;;3.47;;
54959;SDS011;40860;51.710;8.736;2024-01-07T12:41:17;4.95;;;3.60;;
54959;SDS011;40860;51.710;8.736;2024-01-07T12:45:22;4.68;;;3.10;;
54959;SDS011;40860;51.710;8.736;2024-01-07T12:49:28;4.50;;;3.53;;
54959;SDS011;40860;51.710;8.736;2024-01-07T12:53:31;3.30;;;2.85;;
54959;SDS011;40860;51.710;8.736;2024-01-07T12:57:34;3.92;;;3.53;;
54959;SDS011;40860;51.710;8.736;2024-01-07T13:01:39;4.00;;;3.10;;
54959;SDS011;40860;51.710;8.736;2024-01-07T13:05:42;4.93;;;3.70;;
54959;SDS011;40860;51.710;8.736;2024-01-07T13:09:45;4.30;;;3.90;;
54959;SDS011;40860;51.710;8.736;2024-01-07T13:13:49;4.50;;;3.50;;
54959;SDS011;40860;51.710;8.736;2024-01-07T13:17:53;5.28;;;3.55;;
54959;SDS011;40860;51.710;8.736;2024-01-07T13:21:56;6.63;;;3.80;;
54959;SDS011;40860;51.710;8.736;2024-01-07T13:26:00;5.15;;;3.92;;
54959;SDS011;40860;51.710;8.736;2024-01-07T13:30:07;4.63;;;3.65;;
54959;SDS011;40860;51.710;8.736;2024-01-07T13:34:13;5.25;;;3.97;;
54959;SDS011;40860;51.710;8.736;2024-01-07T13:38:16;5.88;;;4.53;;
54959;SDS011;40860;51.710;8.736;2024-01-07T13:42:19;6.40;;;4.15;;
54959;SDS011;40860;51.710;8.736;2024-01-07T13:46:22;7.80;;;4.82;;
54959;SDS011;40860;51.710;8.736;2024-01-07T13:50:29;5.50;;;3.90;;
54959;SDS011;40860;51.710;8.736;2024-01-07T13:54:32;4.47;;;3.58;;
54959;SDS011;40860;51.710;8.736;2024-01-07T13:58:35;4.68;;;3.80;;
54959;SDS011;40860;51.710;8.736;2024-01-07T14:02:42;4.28;;;3.53;;
54959;SDS011;40860;51.710;8.736;2024-01-07T14:06:48;3.42;;;2.90;;
54959;SDS011;40860;51.710;8.736;2024-01-07T14:10:59;3.58;;;3.28;;
54959;SDS011;40860;51.710;8.736;2024-01-07T14:15:03;3.97;;;3.58;;
54959;SDS011;40860;51.710;8.736;2024-01-07T14:19:07;5.70;;;3.65;;
54959;SDS011;40860;51.710;8.736;2024-01-07T14:23:12;4.22;;;3.83;;
54959;SDS011;40860;51.710;8.736;2024-01-07T14:27:15;5.47;;;3.10;;
54959;SDS011;40860;51.710;8.736;2024-01-07T14:31:21;3.38;;;2.92;;
54959;SDS011;40860;51.710;8.736;2024-01-07T14:35:24;3.08;;;2.78;;
54959;SDS011;40860;51.710;8.736;2024-01-07T14:39:31;3.60;;;2.65;;
54959;SDS011;40860;51.710;8.736;2024-01-07T14:43:34;4.63;;;3.05;;
54959;SDS011;40860;51.710;8.736;2024-01-07T14:47:37;2.88;;;2.42;;
54959;SDS011;40860;51.710;8.736;2024-01-07T14:51:40;4.65;;;3.05;;
54959;SDS011;40860;51.710;8.736;2024-01-07T14:55:44;3.33;;;3.00;;
54959;SDS011;40860;51.710;8.736;2024-01-07T14:59:48;2.47;;;2.28;;
54959;SDS011;40860;51.710;8.736;2024-01-07T15:03:51;4.45;;;2.85;;
54959;SDS011;40860;51.710;8.736;2024-01-07T15:07:54;4.22;;;2.58;;
54959;SDS011;40860;51.710;8.736;2024-01-07T15:11:58;4.03;;;2.58;;
54959;SDS011;40860;51.710;8.736;2024-01-07T15:16:02;3.95;;;2.78;;
54959;SDS011;40860;51.710;8.736;2024-01-07T15:20:07;3.13;;;2.60;;
54959;SDS011;40860;51.710;8.736;2024-01-07T15:24:10;2.83;;;2.60;;
54959;SDS011;40860;51.710;8.736;2024-01-07T15:28:15;3.15;;;2.38;;
54959;SDS011;40860;51.710;8.736;2024-01-07T15:32:18;5.30;;;2.78;;
54959;SDS011;40860;51.710;8.736;2024-01-07T15:36:21;4.07;;;3.17;;
54959;SDS011;40860;51.710;8.736;2024-01-07T15:40:24;4.40;;;3.00;;
54959;SDS011;40860;51.710;8.736;2024-01-07T15:44:32;3.17;;;2.67;;
54959;SDS011;40860;51.710;8.736;2024-01-07T15:48:36;4.50;;;2.90;;
54959;SDS011;40860;51.710;8.736;2024-01-07T15:52:40;4.97;;;3.03;;
54959;SDS011;40860;51.710;8.736;2024-01-07T15:56:47;4.18;;;3.00;;
54959;SDS011;40860;51.710;8.736;2024-01-07T16:00:52;3.83;;;3.10;;
54959;SDS011;40860;51.710;8.736;2024-01-07T16:04:56;4.78;;;3.00;;
54959;SDS011;40860;51.710;8.736;2024-01-07T16:08:59;3.47;;;2.88;;
54959;SDS011;40860;51.710;8.736;2024-01-07T16:13:02;5.53;;;3.30;;
54959;SDS011;40860;51.710;8.736;2024-01-07T16:17:06;6.32;;;3.40;;
54959;SDS011;40860;51.710;8.736;2024-01-07T16:21:09;4.28;;;2.92;;
54959;SDS011;40860;51.710;8.736;2024-01-07T16:25:12;6.28;;;4.00;;
54959;SDS011;40860;51.710;8.736;2024-01-07T16:29:15;4.25;;;3.28;;
54959;SDS011;40860;51.710;8.736;2024-01-07T16:33:23;3.30;;;2.95;;
54959;SDS011;40860;51.710;8.736;2024-01-07T16:37:26;5.15;;;3.20;;
54959;SDS011;40860;51.710;8.736;2024-01-07T16:41:30;3.45;;;2.92;;
54959;SDS011;40860;51.710;8.736;2024-01-07T16:45:33;5.28;;;3.20;;
54959;SDS011;40860;51.710;8.736;2024-01-07T16:49:38;3.28;;;2.88;;
54959;SDS011;40860;51.710;8.736;2024-01-07T16:54:01;3.97;;;3.22;;
54959;SDS011;40860;51.710;8.736;2024-01-07T16:58:05;3.95;;;3.53;;
54959;SDS011;40860;51.710;8.736;2024-01-07T17:02:08;3.45;;;2.90;;
54959;SDS011;40860;51.710;8.736;2024-01-07T17:06:13;5.13;;;3.63;;
54959;SDS011;40860;51.710;8.736;2024-01-07T17:10:16;4.43;;;3.42;;
54959;SDS011;40860;51.710;8.736;2024-01-07T17:14:19;4.28;;;2.80;;
54959;SDS011;40860;51.710;8.736;2024-01-07T17:18:23;6.07;;;2.70;;
54959;SDS011;40860;51.710;8.736;2024-01-07T17:22:27;4.07;;;3.15;;
54959;SDS011;40860;51.710;8.736;2024-01-07T17:26:30;5.30;;;2.90;;
54959;SDS011;40860;51.710;8.736;2024-01-07T17:30:34;3.78;;;3.00;;
54959;SDS011;40860;51.710;8.736;2024-01-07T17:34:39;4.22;;;3.08;;
54959;SDS011;40860;51.710;8.736;2024-01-07T17:38:43;4.05;;;3.65;;
54959;SDS011;40860;51.710;8.736;2024-01-07T17:42:47;4.78;;;3.80;;
54959;SDS011;40860;51.710;8.736;2024-01-07T17:46:49;3.17;;;2.67;;
54959;SDS011;40860;51.710;8.736;2024-01-07T17:50:53;4.30;;;2.90;;
54959;SDS011;40860;51.710;8.736;2024-01-07T17:55:06;5.82;;;4.00;;
54959;SDS011;40860;51.710;8.736;2024-01-07T17:59:10;6.82;;;3.90;;
54959;SDS011;40860;51.710;8.736;2024-01-07T18:03:13;6.72;;;4.32;;
54959;SDS011;40860;51.710;8.736;2024-01-07T18:07:16;9.48;;;5.35;;
54959;SDS011;40860;51.710;8.736;2024-01-07T18:11:21;9.30;;;5.72;;
54959;SDS011;40860;51.710;8.736;2024-01-07T18:15:24;11.40;;;6.00;;
54959;SDS011;40860;51.710;8.736;2024-01-07T18:19:28;4.25;;;3.33;;
54959;SDS011;40860;51.710;8.736;2024-01-07T18:23:31;4.53;;;3.60;;
54959;SDS011;40860;51.710;8.736;2024-01-07T18:27:35;3.63;;;2.92;;
54959;SDS011;40860;51.710;8.736;2024-01-07T18:31:40;6.47;;;3.45;;
54959;SDS011;40860;51.710;8.736;2024-01-07T18:35:44;5.00;;;3.33;;
54959;SDS011;40860;51.710;8.736;2024-01-07T18:39:49;5.28;;;3.40;;
54959;SDS011;40860;51.710;8.736;2024-01-07T18:43:54;5.82;;;3.40;;
54959;SDS011;40860;51.710;8.736;2024-01-07T18:47:57;3.63;;;2.92;;
54959;SDS011;40860;51.710;8.736;2024-01-07T18:52:01;5.72;;;3.60;;
54959;SDS011;40860;51.710;8.736;2024-01-07T18:56:05;3.95;;;3.60;;
54959;SDS011;40860;51.710;8.736;2024-01-07T19:00:11;4.22;;;3.00;;
54959;SDS011;40860;51.710;8.736;2024-01-07T19:04:14;3.92;;;3.10;;
54959;SDS011;40860;51.710;8.736;2024-01-07T19:08:18;4.88;;;3.42;;
54959;SDS011;40860;51.710;8.736;2024-01-07T19:12:21;5.35;;;3.75;;
54959;SDS011;40860;51.710;8.736;2024-01-07T19:16:26;4.35;;;3.60;;
54959;SDS011;40860;51.710;8.736;2024-01-07T19:20:32;5.53;;;3.50;;
54959;SDS011;40860;51.710;8.736;2024-01-07T19:24:36;3.35;;;2.80;;
54959;SDS011;40860;51.710;8.736;2024-01-07T19:28:39;3.03;;;2.50;;
54959;SDS011;40860;51.710;8.736;2024-01-07T19:32:45;5.20;;;3.10;;
54959;SDS011;40860;51.710;8.736;2024-01-07T19:36:48;4.18;;;2.88;;
54959;SDS011;40860;51.710;8.736;2024-01-07T19:40:53;6.03;;;3.10;;
54959;SDS011;40860;51.710;8.736;2024-01-07T19:44:56;2.88;;;2.53;;
54959;SDS011;40860;51.710;8.736;2024-01-07T19:49:01;6.10;;;2.88;;
54959;SDS011;40860;51.710;8.736;2024-01-07T19:53:07;5.80;;;3.00;;
54959;SDS011;40860;51.710;8.736;2024-01-07T19:57:19;4.80;;;3.08;;
54959;SDS011;40860;51.710;8.736;2024-01-07T20:01:23;3.50;;;2.92;;
54959;SDS011;40860;51.710;8.736;2024-01-07T20:05:27;4.38;;;2.60;;
54959;SDS011;40860;51.710;8.736;2024-01-07T20:09:32;5.22;;;3.17;;
54959;SDS011;40860;51.710;8.736;2024-01-07T20:13:35;3.97;;;2.80;;
54959;SDS011;40860;51.710;8.736;2024-01-07T20:17:39;3.58;;;2.60;;
54959;SDS011;40860;51.710;8.736;2024-01-07T20:21:45;5.15;;;3.20;;
54959;SDS011;40860;51.710;8.736;2024-01-07T20:25:49;4.03;;;3.30;;
54959;SDS011;40860;51.710;8.736;2024-01-07T20:29:55;3.58;;;2.88;;
54959;SDS011;40860;51.710;8.736;2024-01-07T20:33:58;3.72;;;2.92;;
54959;SDS011;40860;51.710;8.736;2024-01-07T20:38:05;5.70;;;3.75;;
54959;SDS011;40860;51.710;8.736;2024-01-07T20:42:10;6.07;;;4.10;;
54959;SDS011;40860;51.710;8.736;2024-01-07T20:46:36;5.05;;;3.60;;
54959;SDS011;40860;51.710;8.736;2024-01-07T20:50:40;4.93;;;4.00;;
54959;SDS011;40860;51.710;8.736;2024-01-07T20:54:45;4.65;;;3.60;;
54959;SDS011;40860;51.710;8.736;2024-01-07T20:58:49;5.20;;;3.90;;
54959;SDS011;40860;51.710;8.736;2024-01-07T21:02:52;7.57;;;4.90;;
54959;SDS011;40860;51.710;8.736;2024-01-07T21:06:56;5.32;;;4.30;;
54959;SDS011;40860;51.710;8.736;2024-01-07T21:11:00;8.38;;;4.95;;
54959;SDS011;40860;51.710;8.736;2024-01-07T21:15:06;5.13;;;4.32;;
54959;SDS011;40860;51.710;8.736;2024-01-07T21:19:10;8.25;;;4.45;;
54959;SDS011;40860;51.710;8.736;2024-01-07T21:23:13;5.75;;;4.20;;
54959;SDS011;40860;51.710;8.736;2024-01-07T21:27:20;7.30;;;4.32;;
54959;SDS011;40860;51.710;8.736;2024-01-07T21:31:23;4.85;;;3.92;;
54959;SDS011;40860;51.710;8.736;2024-01-07T21:35:28;6.30;;;4.25;;
54959;SDS011;40860;51.710;8.736;2024-01-07T21:39:34;5.43;;;4.20;;
54959;SDS011;40860;51.710;8.736;2024-01-07T21:43:45;6.90;;;4.93;;
54959;SDS011;40860;51.710;8.736;2024-01-07T21:47:48;5.13;;;4.57;;
54959;SDS011;40860;51.710;8.736;2024-01-07T21:51:51;6.88;;;4.40;;
54959;SDS011;40860;51.710;8.736;2024-01-07T21:55:54;6.50;;;4.90;;
54959;SDS011;40860;51.710;8.736;2024-01-07T21:59:59;5.65;;;4.20;;
54959;SDS011;40860;51.710;8.736;2024-01-07T22:04:10;5.10;;;4.13;;
54959;SDS011;40860;51.710;8.736;2024-01-07T22:08:13;4.35;;;3.60;;
54959;SDS011;40860;51.710;8.736;2024-01-07T22:12:17;7.68;;;4.15;;
54959;SDS011;40860;51.710;8.736;2024-01-07T22:16:21;5.38;;;3.63;;
54959;SDS011;40860;51.710;8.736;2024-01-07T22:20:24;6.78;;;4.10;;
54959;SDS011;40860;51.710;8.736;2024-01-07T22:24:28;4.68;;;3.60;;
54959;SDS011;40860;51.710;8.736;2024-01-07T22:28:32;4.68;;;3.70;;
54959;SDS011;40860;51.710;8.736;2024-01-07T22:32:36;5.38;;;3.70;;
54959;SDS011;40860;51.710;8.736;2024-01-07T22:36:40;4.35;;;3.50;;
54959;SDS011;40860;51.710;8.736;2024-01-07T22:40:43;4.75;;;3.38;;
54959;SDS011;40860;51.710;8.736;2024-01-07T22:44:48;5.28;;;3.42;;
54959;SDS011;40860;51.710;8.736;2024-01-07T22:48:52;5.05;;;3.47;;
54959;SDS011;40860;51.710;8.736;2024-01-07T22:52:56;3.72;;;3.30;;
54959;SDS011;40860;51.710;8.736;2024-01-07T22:56:59;5.45;;;3.42;;
54959;SDS011;40860;51.710;8.736;2024-01-07T23:01:03;5.82;;;3.40;;
54959;SDS011;40860;51.710;8.736;2024-01-07T23:05:08;3.97;;;3.50;;
54959;SDS011;40860;51.710;8.736;2024-01-07T23:09:12;5.93;;;3.78;;
54959;SDS011;40860;51.710;8.736;2024-01-07T23:13:15;4.30;;;3.75;;
54959;SDS011;40860;51.710;8.736;2024-01-07T23:17:18;5.03;;;3.33;;
54959;SDS011;40860;51.710;8.736;2024-01-07T23:21:24;4.85;;;3.70;;
54959;SDS011;40860;51.710;8.736;2024-01-07T23:25:28;5.15;;;3.65;;
54959;SDS011;40860;51.710;8.736;2024-01-07T23:29:32;4.30;;;3.40;;
54959;SDS011;40860;51.710;8.736;2024-01-07T23:33:36;4.38;;;3.80;;
54959;SDS011;40860;51.710;8.736;2024-01-07T23:37:41;4.28;;;3.75;;
54959;SDS011;40860;51.710;8.736;2024-01-07T23:41:44;5.35;;;3.58;;
54959;SDS011;40860;51.710;8.736;2024-01-07T23:45:47;4.97;;;3.58;;
54959;SDS011;40860;51.710;8.736;2024-01-07T23:49:50;5.32;;;3.90;;
54959;SDS011;40860;51.710;8.736;2024-01-07T23:53:55;5.63;;;3.80;;
54959;SDS011;40860;51.710;8.736;2024-01-07T23:57:59;4.60;;;3.40;;
